sensor_id;sensor_type;location;lat;lon;timestamp;P1;durP1;ratioP1;P2;durP2;ratioP2
79229;SDS011;68663;49.122;17.544;2023-08-21T00:01:17;11.07;;;10.00;;
79229;SDS011;68663;49.122;17.544;2023-08-21T00:03:43;11.00;;;10.00;;
79229;SDS011;68663;49.122;17.544;2023-08-21T00:06:08;11.82;;;10.73;;
79229;SDS011;68663;49.122;17.544;2023-08-21T00:08:34;10.57;;;9.02;;
79229;SDS011;68663;49.122;17.544;2023-08-21T00:11:00;11.43;;;10.30;;
79229;SDS011;68663;49.122;17.544;2023-08-21T00:13:25;10.15;;;9.05;;
79229;SDS011;68663;49.122;17.544;2023-08-21T00:15:51;10.77;;;9.77;;
79229;SDS011;68663;49.122;17.544;2023-08-21T00:18:16;11.48;;;10.38;;
79229;SDS011;68663;49.122;17.544;2023-08-21T00:20:42;11.93;;;10.73;;
79229;SDS011;68663;49.122;17.544;2023-08-21T00:23:08;9.93;;;8.93;;
79229;SDS011;68663;49.122;17.544;2023-08-21T00:25:33;11.32;;;10.32;;
79229;SDS011;68663;49.122;17.544;2023-08-21T00:27:59;10.65;;;9.75;;
79229;SDS011;68663;49.122;17.544;2023-08-21T00:30:24;10.13;;;9.10;;
79229;SDS011;68663;49.122;17.544;2023-08-21T00:32:50;10.38;;;9.23;;
79229;SDS011;68663;49.122;17.544;2023-08-21T00:35:15;9.80;;;8.90;;
79229;SDS011;68663;49.122;17.544;2023-08-21T00:37:41;11.98;;;9.75;;
79229;SDS011;68663;49.122;17.544;2023-08-21T00:40:07;10.40;;;9.35;;
79229;SDS011;68663;49.122;17.544;2023-08-21T00:42:32;10.82;;;9.23;;
79229;SDS011;68663;49.122;17.544;2023-08-21T00:44:58;11.60;;;10.50;;
79229;SDS011;68663;49.122;17.544;2023-08-21T00:47:23;11.95;;;10.52;;
79229;SDS011;68663;49.122;17.544;2023-08-21T00:49:50;9.75;;;8.75;;
79229;SDS011;68663;49.122;17.544;2023-08-21T00:52:15;11.18;;;10.05;;
79229;SDS011;68663;49.122;17.544;2023-08-21T00:54:42;10.40;;;9.30;;
79229;SDS011;68663;49.122;17.544;2023-08-21T00:57:08;11.15;;;9.05;;
79229;SDS011;68663;49.122;17.544;2023-08-21T00:59:35;10.95;;;9.82;;
79229;SDS011;68663;49.122;17.544;2023-08-21T01:02:00;10.98;;;9.57;;
79229;SDS011;68663;49.122;17.544;2023-08-21T01:04:26;10.65;;;9.65;;
79229;SDS011;68663;49.122;17.544;2023-08-21T01:06:51;10.05;;;9.13;;
79229;SDS011;68663;49.122;17.544;2023-08-21T01:17:30;11.15;;;9.98;;
79229;SDS011;68663;49.122;17.544;2023-08-21T01:19:58;10.93;;;9.82;;
79229;SDS011;68663;49.122;17.544;2023-08-21T01:22:34;10.55;;;9.55;;
79229;SDS011;68663;49.122;17.544;2023-08-21T01:25:10;10.25;;;9.25;;
79229;SDS011;68663;49.122;17.544;2023-08-21T01:27:36;11.90;;;9.27;;
79229;SDS011;68663;49.122;17.544;2023-08-21T01:30:03;10.05;;;9.13;;
79229;SDS011;68663;49.122;17.544;2023-08-21T01:32:43;10.45;;;9.48;;
79229;SDS011;68663;49.122;17.544;2023-08-21T01:35:17;10.63;;;9.57;;
79229;SDS011;68663;49.122;17.544;2023-08-21T01:37:45;13.43;;;9.18;;
79229;SDS011;68663;49.122;17.544;2023-08-21T01:40:11;10.98;;;9.88;;
79229;SDS011;68663;49.122;17.544;2023-08-21T01:42:36;10.50;;;9.60;;
79229;SDS011;68663;49.122;17.544;2023-08-21T01:45:02;9.97;;;9.07;;
79229;SDS011;68663;49.122;17.544;2023-08-21T01:47:27;10.85;;;9.75;;
79229;SDS011;68663;49.122;17.544;2023-08-21T01:49:53;11.38;;;10.18;;
79229;SDS011;68663;49.122;17.544;2023-08-21T01:52:18;9.57;;;8.70;;
79229;SDS011;68663;49.122;17.544;2023-08-21T01:54:44;10.82;;;9.23;;
79229;SDS011;68663;49.122;17.544;2023-08-21T01:57:12;10.02;;;9.02;;
79229;SDS011;68663;49.122;17.544;2023-08-21T01:59:38;10.45;;;9.45;;
79229;SDS011;68663;49.122;17.544;2023-08-21T02:02:03;10.67;;;9.67;;
79229;SDS011;68663;49.122;17.544;2023-08-21T02:04:29;10.25;;;9.00;;
79229;SDS011;68663;49.122;17.544;2023-08-21T02:06:54;10.57;;;9.47;;
79229;SDS011;68663;49.122;17.544;2023-08-21T02:09:20;11.15;;;10.18;;
79229;SDS011;68663;49.122;17.544;2023-08-21T02:11:45;10.63;;;9.53;;
79229;SDS011;68663;49.122;17.544;2023-08-21T02:14:10;11.45;;;9.68;;
79229;SDS011;68663;49.122;17.544;2023-08-21T02:16:36;11.63;;;10.63;;
79229;SDS011;68663;49.122;17.544;2023-08-21T02:19:01;11.25;;;10.25;;
79229;SDS011;68663;49.122;17.544;2023-08-21T02:21:27;10.60;;;9.48;;
79229;SDS011;68663;49.122;17.544;2023-08-21T02:23:52;10.10;;;9.20;;
79229;SDS011;68663;49.122;17.544;2023-08-21T02:26:17;11.37;;;10.20;;
79229;SDS011;68663;49.122;17.544;2023-08-21T02:28:44;10.25;;;9.25;;
79229;SDS011;68663;49.122;17.544;2023-08-21T02:31:10;10.48;;;9.57;;
79229;SDS011;68663;49.122;17.544;2023-08-21T02:33:36;10.27;;;9.38;;
79229;SDS011;68663;49.122;17.544;2023-08-21T02:36:01;10.77;;;9.77;;
79229;SDS011;68663;49.122;17.544;2023-08-21T02:38:28;9.63;;;8.73;;
79229;SDS011;68663;49.122;17.544;2023-08-21T02:40:54;10.23;;;9.23;;
79229;SDS011;68663;49.122;17.544;2023-08-21T02:43:19;10.10;;;9.18;;
79229;SDS011;68663;49.122;17.544;2023-08-21T02:45:45;9.95;;;9.10;;
79229;SDS011;68663;49.122;17.544;2023-08-21T02:48:11;10.30;;;9.30;;
79229;SDS011;68663;49.122;17.544;2023-08-21T02:50:36;10.57;;;9.60;;
79229;SDS011;68663;49.122;17.544;2023-08-21T02:53:02;11.00;;;9.73;;
79229;SDS011;68663;49.122;17.544;2023-08-21T02:55:27;10.95;;;9.95;;
79229;SDS011;68663;49.122;17.544;2023-08-21T02:57:53;9.87;;;8.97;;
79229;SDS011;68663;49.122;17.544;2023-08-21T03:00:18;10.85;;;9.85;;
79229;SDS011;68663;49.122;17.544;2023-08-21T03:02:44;10.05;;;9.13;;
79229;SDS011;68663;49.122;17.544;2023-08-21T03:05:10;10.85;;;9.75;;
79229;SDS011;68663;49.122;17.544;2023-08-21T03:07:36;11.05;;;9.82;;
79229;SDS011;68663;49.122;17.544;2023-08-21T03:10:01;10.57;;;9.50;;
79229;SDS011;68663;49.122;17.544;2023-08-21T03:12:27;10.38;;;9.38;;
79229;SDS011;68663;49.122;17.544;2023-08-21T03:14:53;9.75;;;8.80;;
79229;SDS011;68663;49.122;17.544;2023-08-21T03:17:18;11.20;;;10.23;;
79229;SDS011;68663;49.122;17.544;2023-08-21T03:19:43;11.95;;;10.77;;
79229;SDS011;68663;49.122;17.544;2023-08-21T03:22:09;11.25;;;9.90;;
79229;SDS011;68663;49.122;17.544;2023-08-21T03:24:34;10.52;;;9.52;;
79229;SDS011;68663;49.122;17.544;2023-08-21T03:27:01;10.85;;;9.77;;
79229;SDS011;68663;49.122;17.544;2023-08-21T03:29:26;11.60;;;10.23;;
79229;SDS011;68663;49.122;17.544;2023-08-21T03:31:52;10.43;;;9.52;;
79229;SDS011;68663;49.122;17.544;2023-08-21T03:34:21;11.10;;;9.95;;
79229;SDS011;68663;49.122;17.544;2023-08-21T03:36:47;14.45;;;10.95;;
79229;SDS011;68663;49.122;17.544;2023-08-21T03:39:12;10.85;;;9.85;;
79229;SDS011;68663;49.122;17.544;2023-08-21T03:41:38;10.70;;;9.63;;
79229;SDS011;68663;49.122;17.544;2023-08-21T03:44:03;12.77;;;10.65;;
79229;SDS011;68663;49.122;17.544;2023-08-21T03:46:29;10.98;;;9.30;;
79229;SDS011;68663;49.122;17.544;2023-08-21T03:48:54;12.43;;;11.23;;
79229;SDS011;68663;49.122;17.544;2023-08-21T03:51:19;10.33;;;9.33;;
79229;SDS011;68663;49.122;17.544;2023-08-21T03:53:45;11.23;;;10.23;;
79229;SDS011;68663;49.122;17.544;2023-08-21T03:56:10;11.27;;;10.23;;
79229;SDS011;68663;49.122;17.544;2023-08-21T03:58:36;11.82;;;10.80;;
79229;SDS011;68663;49.122;17.544;2023-08-21T04:01:01;11.20;;;10.20;;
79229;SDS011;68663;49.122;17.544;2023-08-21T04:03:27;10.60;;;9.60;;
79229;SDS011;68663;49.122;17.544;2023-08-21T04:05:55;10.65;;;9.65;;
79229;SDS011;68663;49.122;17.544;2023-08-21T04:08:24;10.93;;;10.02;;
79229;SDS011;68663;49.122;17.544;2023-08-21T04:10:49;11.98;;;10.50;;
79229;SDS011;68663;49.122;17.544;2023-08-21T04:13:17;11.57;;;10.30;;
79229;SDS011;68663;49.122;17.544;2023-08-21T04:15:45;11.23;;;10.17;;
79229;SDS011;68663;49.122;17.544;2023-08-21T04:18:11;11.00;;;10.00;;
79229;SDS011;68663;49.122;17.544;2023-08-21T04:20:37;11.18;;;10.07;;
79229;SDS011;68663;49.122;17.544;2023-08-21T04:23:02;11.25;;;10.25;;
79229;SDS011;68663;49.122;17.544;2023-08-21T04:25:28;11.75;;;10.55;;
79229;SDS011;68663;49.122;17.544;2023-08-21T04:27:53;12.02;;;11.02;;
79229;SDS011;68663;49.122;17.544;2023-08-21T04:30:19;11.57;;;10.40;;
79229;SDS011;68663;49.122;17.544;2023-08-21T04:32:45;13.02;;;11.82;;
79229;SDS011;68663;49.122;17.544;2023-08-21T04:35:10;11.45;;;9.60;;
79229;SDS011;68663;49.122;17.544;2023-08-21T04:37:37;12.88;;;11.68;;
79229;SDS011;68663;49.122;17.544;2023-08-21T04:40:03;10.68;;;9.75;;
79229;SDS011;68663;49.122;17.544;2023-08-21T04:42:28;10.73;;;9.80;;
79229;SDS011;68663;49.122;17.544;2023-08-21T04:44:54;12.35;;;11.25;;
79229;SDS011;68663;49.122;17.544;2023-08-21T04:47:23;11.05;;;9.98;;
79229;SDS011;68663;49.122;17.544;2023-08-21T04:49:52;11.48;;;10.32;;
79229;SDS011;68663;49.122;17.544;2023-08-21T04:52:19;11.10;;;10.10;;
79229;SDS011;68663;49.122;17.544;2023-08-21T04:54:47;10.18;;;9.27;;
79229;SDS011;68663;49.122;17.544;2023-08-21T04:57:13;10.30;;;9.30;;
79229;SDS011;68663;49.122;17.544;2023-08-21T04:59:39;11.02;;;9.95;;
79229;SDS011;68663;49.122;17.544;2023-08-21T05:02:04;11.25;;;10.18;;
79229;SDS011;68663;49.122;17.544;2023-08-21T05:04:30;10.80;;;9.60;;
79229;SDS011;68663;49.122;17.544;2023-08-21T05:06:55;10.68;;;9.65;;
79229;SDS011;68663;49.122;17.544;2023-08-21T05:09:21;11.13;;;10.05;;
79229;SDS011;68663;49.122;17.544;2023-08-21T05:11:46;10.90;;;9.35;;
79229;SDS011;68663;49.122;17.544;2023-08-21T05:14:12;12.65;;;11.45;;
79229;SDS011;68663;49.122;17.544;2023-08-21T05:16:37;10.95;;;9.85;;
79229;SDS011;68663;49.122;17.544;2023-08-21T05:19:03;12.27;;;11.17;;
79229;SDS011;68663;49.122;17.544;2023-08-21T05:21:28;12.60;;;10.98;;
79229;SDS011;68663;49.122;17.544;2023-08-21T05:23:54;11.05;;;10.02;;
79229;SDS011;68663;49.122;17.544;2023-08-21T05:26:19;11.77;;;10.67;;
79229;SDS011;68663;49.122;17.544;2023-08-21T05:28:45;10.68;;;9.57;;
79229;SDS011;68663;49.122;17.544;2023-08-21T05:31:10;10.70;;;9.60;;
79229;SDS011;68663;49.122;17.544;2023-08-21T05:33:36;12.20;;;11.00;;
79229;SDS011;68663;49.122;17.544;2023-08-21T05:36:02;11.80;;;10.70;;
79229;SDS011;68663;49.122;17.544;2023-08-21T05:38:27;10.40;;;9.32;;
79229;SDS011;68663;49.122;17.544;2023-08-21T05:40:53;10.77;;;9.68;;
79229;SDS011;68663;49.122;17.544;2023-08-21T05:43:18;12.90;;;11.70;;
79229;SDS011;68663;49.122;17.544;2023-08-21T05:45:44;11.20;;;10.13;;
79229;SDS011;68663;49.122;17.544;2023-08-21T05:48:09;12.13;;;10.65;;
79229;SDS011;68663;49.122;17.544;2023-08-21T05:50:35;12.23;;;10.73;;
79229;SDS011;68663;49.122;17.544;2023-08-21T05:53:02;12.90;;;11.77;;
79229;SDS011;68663;49.122;17.544;2023-08-21T05:55:28;11.55;;;10.30;;
79229;SDS011;68663;49.122;17.544;2023-08-21T05:57:54;12.40;;;11.20;;
79229;SDS011;68663;49.122;17.544;2023-08-21T06:00:19;13.33;;;12.03;;
79229;SDS011;68663;49.122;17.544;2023-08-21T06:02:45;15.23;;;13.43;;
79229;SDS011;68663;49.122;17.544;2023-08-21T06:05:10;13.02;;;11.65;;
79229;SDS011;68663;49.122;17.544;2023-08-21T06:07:35;12.87;;;11.57;;
79229;SDS011;68663;49.122;17.544;2023-08-21T06:10:01;11.63;;;10.52;;
79229;SDS011;68663;49.122;17.544;2023-08-21T06:12:27;11.40;;;10.30;;
79229;SDS011;68663;49.122;17.544;2023-08-21T06:14:52;11.82;;;10.65;;
79229;SDS011;68663;49.122;17.544;2023-08-21T06:17:17;11.90;;;10.63;;
79229;SDS011;68663;49.122;17.544;2023-08-21T06:19:43;11.95;;;10.85;;
79229;SDS011;68663;49.122;17.544;2023-08-21T06:22:09;15.10;;;11.45;;
79229;SDS011;68663;49.122;17.544;2023-08-21T06:24:34;13.15;;;11.85;;
79229;SDS011;68663;49.122;17.544;2023-08-21T06:27:00;13.48;;;12.18;;
79229;SDS011;68663;49.122;17.544;2023-08-21T06:29:26;13.20;;;12.00;;
79229;SDS011;68663;49.122;17.544;2023-08-21T06:31:51;15.18;;;11.45;;
79229;SDS011;68663;49.122;17.544;2023-08-21T06:34:17;12.32;;;11.05;;
79229;SDS011;68663;49.122;17.544;2023-08-21T06:36:42;12.47;;;11.37;;
79229;SDS011;68663;49.122;17.544;2023-08-21T06:39:08;18.42;;;16.27;;
79229;SDS011;68663;49.122;17.544;2023-08-21T06:41:33;15.38;;;13.77;;
79229;SDS011;68663;49.122;17.544;2023-08-21T06:43:58;19.23;;;17.20;;
79229;SDS011;68663;49.122;17.544;2023-08-21T06:46:24;14.23;;;12.40;;
79229;SDS011;68663;49.122;17.544;2023-08-21T06:48:50;20.17;;;16.88;;
79229;SDS011;68663;49.122;17.544;2023-08-21T06:51:15;23.73;;;21.25;;
79229;SDS011;68663;49.122;17.544;2023-08-21T06:53:41;19.00;;;16.40;;
79229;SDS011;68663;49.122;17.544;2023-08-21T06:56:06;15.20;;;13.63;;
79229;SDS011;68663;49.122;17.544;2023-08-21T06:58:32;14.48;;;13.07;;
79229;SDS011;68663;49.122;17.544;2023-08-21T07:00:59;15.13;;;12.50;;
79229;SDS011;68663;49.122;17.544;2023-08-21T07:03:25;14.68;;;13.07;;
79229;SDS011;68663;49.122;17.544;2023-08-21T07:05:54;14.60;;;13.20;;
79229;SDS011;68663;49.122;17.544;2023-08-21T07:08:23;17.10;;;15.32;;
79229;SDS011;68663;49.122;17.544;2023-08-21T07:10:49;15.32;;;13.85;;
79229;SDS011;68663;49.122;17.544;2023-08-21T07:13:14;15.10;;;13.60;;
79229;SDS011;68663;49.122;17.544;2023-08-21T07:15:40;14.82;;;13.35;;
79229;SDS011;68663;49.122;17.544;2023-08-21T07:18:05;15.23;;;13.73;;
79229;SDS011;68663;49.122;17.544;2023-08-21T07:20:31;14.48;;;12.98;;
79229;SDS011;68663;49.122;17.544;2023-08-21T07:22:57;15.82;;;14.25;;
79229;SDS011;68663;49.122;17.544;2023-08-21T07:25:23;16.40;;;14.93;;
79229;SDS011;68663;49.122;17.544;2023-08-21T07:27:49;15.70;;;14.13;;
79229;SDS011;68663;49.122;17.544;2023-08-21T07:30:16;16.48;;;13.60;;
79229;SDS011;68663;49.122;17.544;2023-08-21T07:32:42;13.98;;;12.68;;
79229;SDS011;68663;49.122;17.544;2023-08-21T07:35:08;14.32;;;12.88;;
79229;SDS011;68663;49.122;17.544;2023-08-21T07:37:34;14.48;;;12.98;;
79229;SDS011;68663;49.122;17.544;2023-08-21T07:39:59;14.93;;;13.43;;
79229;SDS011;68663;49.122;17.544;2023-08-21T07:42:24;14.43;;;12.95;;
79229;SDS011;68663;49.122;17.544;2023-08-21T07:44:50;16.13;;;12.90;;
79229;SDS011;68663;49.122;17.544;2023-08-21T07:47:15;17.45;;;11.63;;
79229;SDS011;68663;49.122;17.544;2023-08-21T07:49:41;12.57;;;11.35;;
79229;SDS011;68663;49.122;17.544;2023-08-21T07:52:06;14.37;;;12.47;;
79229;SDS011;68663;49.122;17.544;2023-08-21T07:54:32;13.23;;;12.13;;
79229;SDS011;68663;49.122;17.544;2023-08-21T07:56:57;14.57;;;12.88;;
79229;SDS011;68663;49.122;17.544;2023-08-21T07:59:23;13.13;;;11.70;;
79229;SDS011;68663;49.122;17.544;2023-08-21T08:01:48;13.68;;;10.95;;
79229;SDS011;68663;49.122;17.544;2023-08-21T08:04:14;13.00;;;11.85;;
79229;SDS011;68663;49.122;17.544;2023-08-21T08:06:40;13.88;;;12.48;;
79229;SDS011;68663;49.122;17.544;2023-08-21T08:09:06;13.27;;;11.88;;
79229;SDS011;68663;49.122;17.544;2023-08-21T08:11:32;13.75;;;12.20;;
79229;SDS011;68663;49.122;17.544;2023-08-21T08:13:58;12.75;;;10.70;;
79229;SDS011;68663;49.122;17.544;2023-08-21T08:16:24;11.68;;;10.52;;
79229;SDS011;68663;49.122;17.544;2023-08-21T08:18:49;12.20;;;11.05;;
79229;SDS011;68663;49.122;17.544;2023-08-21T08:21:15;12.43;;;11.23;;
79229;SDS011;68663;49.122;17.544;2023-08-21T08:23:40;12.52;;;10.60;;
79229;SDS011;68663;49.122;17.544;2023-08-21T08:26:05;13.82;;;10.57;;
79229;SDS011;68663;49.122;17.544;2023-08-21T08:28:31;12.02;;;10.93;;
79229;SDS011;68663;49.122;17.544;2023-08-21T08:30:57;11.38;;;9.98;;
79229;SDS011;68663;49.122;17.544;2023-08-21T08:33:22;12.23;;;11.13;;
79229;SDS011;68663;49.122;17.544;2023-08-21T08:35:48;11.60;;;10.38;;
79229;SDS011;68663;49.122;17.544;2023-08-21T08:38:14;11.75;;;10.68;;
79229;SDS011;68663;49.122;17.544;2023-08-21T08:40:44;11.52;;;10.52;;
79229;SDS011;68663;49.122;17.544;2023-08-21T08:43:11;11.70;;;10.55;;
79229;SDS011;68663;49.122;17.544;2023-08-21T08:45:37;11.20;;;10.13;;
79229;SDS011;68663;49.122;17.544;2023-08-21T08:48:04;11.63;;;10.43;;
79229;SDS011;68663;49.122;17.544;2023-08-21T08:50:30;12.52;;;11.32;;
79229;SDS011;68663;49.122;17.544;2023-08-21T08:52:57;11.20;;;10.10;;
79229;SDS011;68663;49.122;17.544;2023-08-21T08:55:24;11.40;;;10.02;;
79229;SDS011;68663;49.122;17.544;2023-08-21T08:57:50;11.30;;;10.20;;
79229;SDS011;68663;49.122;17.544;2023-08-21T09:00:16;11.70;;;10.70;;
79229;SDS011;68663;49.122;17.544;2023-08-21T09:02:42;11.38;;;10.35;;
79229;SDS011;68663;49.122;17.544;2023-08-21T09:05:08;10.48;;;9.48;;
79229;SDS011;68663;49.122;17.544;2023-08-21T09:07:34;11.88;;;10.88;;
79229;SDS011;68663;49.122;17.544;2023-08-21T09:10:00;11.32;;;10.23;;
79229;SDS011;68663;49.122;17.544;2023-08-21T09:12:25;11.13;;;9.95;;
79229;SDS011;68663;49.122;17.544;2023-08-21T09:14:51;9.88;;;8.90;;
79229;SDS011;68663;49.122;17.544;2023-08-21T09:17:16;10.57;;;9.57;;
79229;SDS011;68663;49.122;17.544;2023-08-21T09:19:42;10.80;;;9.70;;
79229;SDS011;68663;49.122;17.544;2023-08-21T09:24:35;10.80;;;9.80;;
79229;SDS011;68663;49.122;17.544;2023-08-21T09:27:02;10.85;;;9.75;;
79229;SDS011;68663;49.122;17.544;2023-08-21T09:29:37;10.63;;;9.63;;
79229;SDS011;68663;49.122;17.544;2023-08-21T09:32:04;10.90;;;9.98;;
79229;SDS011;68663;49.122;17.544;2023-08-21T09:34:38;10.52;;;9.55;;
79229;SDS011;68663;49.122;17.544;2023-08-21T09:37:07;9.57;;;8.73;;
79229;SDS011;68663;49.122;17.544;2023-08-21T09:39:35;11.75;;;10.65;;
79229;SDS011;68663;49.122;17.544;2023-08-21T09:42:04;10.52;;;9.63;;
79229;SDS011;68663;49.122;17.544;2023-08-21T09:44:38;37.03;;;28.63;;
79229;SDS011;68663;49.122;17.544;2023-08-21T09:47:07;23.90;;;21.42;;
79229;SDS011;68663;49.122;17.544;2023-08-21T09:49:34;20.00;;;18.00;;
79229;SDS011;68663;49.122;17.544;2023-08-21T09:51:59;15.57;;;13.80;;
79229;SDS011;68663;49.122;17.544;2023-08-21T09:54:26;14.43;;;13.02;;
79229;SDS011;68663;49.122;17.544;2023-08-21T09:56:53;15.65;;;14.05;;
79229;SDS011;68663;49.122;17.544;2023-08-21T09:59:19;13.68;;;12.27;;
79229;SDS011;68663;49.122;17.544;2023-08-21T10:01:45;12.52;;;11.32;;
79229;SDS011;68663;49.122;17.544;2023-08-21T10:04:14;12.48;;;11.07;;
79229;SDS011;68663;49.122;17.544;2023-08-21T10:06:42;12.73;;;11.52;;
79229;SDS011;68663;49.122;17.544;2023-08-21T10:09:13;12.18;;;11.07;;
79229;SDS011;68663;49.122;17.544;2023-08-21T10:11:40;11.40;;;10.35;;
79229;SDS011;68663;49.122;17.544;2023-08-21T10:14:10;10.55;;;9.55;;
79229;SDS011;68663;49.122;17.544;2023-08-21T10:16:38;11.23;;;10.02;;
79229;SDS011;68663;49.122;17.544;2023-08-21T10:19:03;11.45;;;10.35;;
79229;SDS011;68663;49.122;17.544;2023-08-21T10:21:36;9.73;;;8.80;;
79229;SDS011;68663;49.122;17.544;2023-08-21T10:24:02;10.85;;;9.75;;
79229;SDS011;68663;49.122;17.544;2023-08-21T10:26:28;11.45;;;10.25;;
79229;SDS011;68663;49.122;17.544;2023-08-21T10:31:30;10.85;;;9.13;;
79229;SDS011;68663;49.122;17.544;2023-08-21T10:34:07;10.07;;;9.15;;
79229;SDS011;68663;49.122;17.544;2023-08-21T10:37:20;14.52;;;10.13;;
79229;SDS011;68663;49.122;17.544;2023-08-21T10:39:31;10.40;;;9.40;;
79229;SDS011;68663;49.122;17.544;2023-08-21T10:47:31;10.07;;;9.07;;
79229;SDS011;68663;49.122;17.544;2023-08-21T10:52:37;10.77;;;9.68;;
79229;SDS011;68663;49.122;17.544;2023-08-21T10:55:07;10.52;;;9.35;;
79229;SDS011;68663;49.122;17.544;2023-08-21T10:57:34;10.63;;;8.77;;
79229;SDS011;68663;49.122;17.544;2023-08-21T11:00:01;11.82;;;9.73;;
79229;SDS011;68663;49.122;17.544;2023-08-21T11:02:38;10.07;;;9.05;;
79229;SDS011;68663;49.122;17.544;2023-08-21T11:05:06;11.00;;;9.85;;
79229;SDS011;68663;49.122;17.544;2023-08-21T11:07:43;10.82;;;9.73;;
79229;SDS011;68663;49.122;17.544;2023-08-21T11:10:13;10.93;;;9.75;;
79229;SDS011;68663;49.122;17.544;2023-08-21T11:15:21;10.27;;;9.18;;
79229;SDS011;68663;49.122;17.544;2023-08-21T11:17:56;12.18;;;9.82;;
79229;SDS011;68663;49.122;17.544;2023-08-21T11:20:30;10.70;;;9.45;;
79229;SDS011;68663;49.122;17.544;2023-08-21T11:23:00;10.57;;;9.60;;
79229;SDS011;68663;49.122;17.544;2023-08-21T11:25:28;10.18;;;8.38;;
79229;SDS011;68663;49.122;17.544;2023-08-21T11:27:55;10.45;;;9.45;;
79229;SDS011;68663;49.122;17.544;2023-08-21T11:30:22;9.35;;;8.45;;
79229;SDS011;68663;49.122;17.544;2023-08-21T11:32:48;8.90;;;8.07;;
79229;SDS011;68663;49.122;17.544;2023-08-21T11:35:15;9.95;;;9.00;;
79229;SDS011;68663;49.122;17.544;2023-08-21T11:37:44;10.05;;;9.00;;
79229;SDS011;68663;49.122;17.544;2023-08-21T11:40:11;10.43;;;9.43;;
79229;SDS011;68663;49.122;17.544;2023-08-21T11:42:38;9.43;;;8.35;;
79229;SDS011;68663;49.122;17.544;2023-08-21T11:45:03;10.70;;;9.25;;
79229;SDS011;68663;49.122;17.544;2023-08-21T11:47:30;9.32;;;8.30;;
79229;SDS011;68663;49.122;17.544;2023-08-21T11:49:58;10.18;;;8.68;;
79229;SDS011;68663;49.122;17.544;2023-08-21T11:52:29;9.75;;;8.85;;
79229;SDS011;68663;49.122;17.544;2023-08-21T11:54:56;10.43;;;9.52;;
79229;SDS011;68663;49.122;17.544;2023-08-21T11:57:22;10.68;;;9.68;;
79229;SDS011;68663;49.122;17.544;2023-08-21T11:59:51;11.48;;;9.75;;
79229;SDS011;68663;49.122;17.544;2023-08-21T12:02:18;10.32;;;8.88;;
79229;SDS011;68663;49.122;17.544;2023-08-21T12:05:06;11.02;;;9.73;;
79229;SDS011;68663;49.122;17.544;2023-08-21T12:07:38;10.68;;;9.73;;
79229;SDS011;68663;49.122;17.544;2023-08-21T12:10:03;10.88;;;9.77;;
79229;SDS011;68663;49.122;17.544;2023-08-21T12:12:29;11.10;;;9.25;;
79229;SDS011;68663;49.122;17.544;2023-08-21T12:14:55;10.25;;;9.25;;
79229;SDS011;68663;49.122;17.544;2023-08-21T12:17:20;10.38;;;9.27;;
79229;SDS011;68663;49.122;17.544;2023-08-21T12:19:46;11.50;;;9.15;;
79229;SDS011;68663;49.122;17.544;2023-08-21T12:22:11;11.20;;;8.97;;
79229;SDS011;68663;49.122;17.544;2023-08-21T12:24:37;10.02;;;9.13;;
79229;SDS011;68663;49.122;17.544;2023-08-21T12:27:03;9.88;;;8.93;;
79229;SDS011;68663;49.122;17.544;2023-08-21T12:29:29;10.02;;;8.38;;
79229;SDS011;68663;49.122;17.544;2023-08-21T12:31:54;11.02;;;8.48;;
79229;SDS011;68663;49.122;17.544;2023-08-21T12:34:20;10.05;;;8.82;;
79229;SDS011;68663;49.122;17.544;2023-08-21T12:36:45;10.05;;;9.02;;
79229;SDS011;68663;49.122;17.544;2023-08-21T12:39:11;9.05;;;8.15;;
79229;SDS011;68663;49.122;17.544;2023-08-21T12:41:36;10.00;;;8.23;;
79229;SDS011;68663;49.122;17.544;2023-08-21T12:44:02;9.40;;;8.40;;
79229;SDS011;68663;49.122;17.544;2023-08-21T12:46:28;9.52;;;8.30;;
79229;SDS011;68663;49.122;17.544;2023-08-21T12:48:55;10.65;;;9.50;;
79229;SDS011;68663;49.122;17.544;2023-08-21T12:51:21;9.73;;;8.38;;
79229;SDS011;68663;49.122;17.544;2023-08-21T12:53:46;10.88;;;8.60;;
79229;SDS011;68663;49.122;17.544;2023-08-21T12:56:12;9.68;;;8.68;;
79229;SDS011;68663;49.122;17.544;2023-08-21T12:58:37;10.43;;;8.52;;
79229;SDS011;68663;49.122;17.544;2023-08-21T13:01:03;11.63;;;8.52;;
79229;SDS011;68663;49.122;17.544;2023-08-21T13:03:29;10.68;;;9.30;;
79229;SDS011;68663;49.122;17.544;2023-08-21T13:05:55;9.63;;;8.63;;
79229;SDS011;68663;49.122;17.544;2023-08-21T13:08:22;10.10;;;9.02;;
79229;SDS011;68663;49.122;17.544;2023-08-21T13:10:47;10.20;;;8.88;;
79229;SDS011;68663;49.122;17.544;2023-08-21T13:13:12;8.60;;;7.80;;
79229;SDS011;68663;49.122;17.544;2023-08-21T13:15:38;9.65;;;8.80;;
79229;SDS011;68663;49.122;17.544;2023-08-21T13:18:03;10.98;;;9.32;;
79229;SDS011;68663;49.122;17.544;2023-08-21T13:20:29;8.77;;;7.88;;
79229;SDS011;68663;49.122;17.544;2023-08-21T13:22:55;10.48;;;7.53;;
79229;SDS011;68663;49.122;17.544;2023-08-21T13:25:22;10.25;;;9.35;;
79229;SDS011;68663;49.122;17.544;2023-08-21T13:27:50;9.98;;;8.77;;
79229;SDS011;68663;49.122;17.544;2023-08-21T13:30:16;11.82;;;8.68;;
79229;SDS011;68663;49.122;17.544;2023-08-21T13:32:42;9.10;;;8.32;;
79229;SDS011;68663;49.122;17.544;2023-08-21T13:35:08;10.85;;;8.60;;
79229;SDS011;68663;49.122;17.544;2023-08-21T13:37:37;9.48;;;7.55;;
79229;SDS011;68663;49.122;17.544;2023-08-21T13:40:03;13.98;;;8.55;;
79229;SDS011;68663;49.122;17.544;2023-08-21T13:42:39;9.45;;;8.55;;
79229;SDS011;68663;49.122;17.544;2023-08-21T13:45:08;10.75;;;8.80;;
79229;SDS011;68663;49.122;17.544;2023-08-21T13:47:40;11.57;;;8.55;;
79229;SDS011;68663;49.122;17.544;2023-08-21T13:50:13;9.38;;;8.38;;
79229;SDS011;68663;49.122;17.544;2023-08-21T13:52:39;9.27;;;8.45;;
79229;SDS011;68663;49.122;17.544;2023-08-21T13:55:08;8.70;;;7.80;;
79229;SDS011;68663;49.122;17.544;2023-08-21T13:57:36;8.55;;;7.55;;
79229;SDS011;68663;49.122;17.544;2023-08-21T14:00:03;10.13;;;7.68;;
79229;SDS011;68663;49.122;17.544;2023-08-21T14:02:34;8.70;;;7.43;;
79229;SDS011;68663;49.122;17.544;2023-08-21T14:05:10;7.95;;;7.20;;
79229;SDS011;68663;49.122;17.544;2023-08-21T14:07:40;7.80;;;6.93;;
79229;SDS011;68663;49.122;17.544;2023-08-21T14:10:08;7.88;;;7.18;;
79229;SDS011;68663;49.122;17.544;2023-08-21T14:12:35;8.07;;;7.38;;
79229;SDS011;68663;49.122;17.544;2023-08-21T14:15:03;8.70;;;7.80;;
79229;SDS011;68663;49.122;17.544;2023-08-21T14:17:50;9.40;;;7.60;;
79229;SDS011;68663;49.122;17.544;2023-08-21T14:20:16;8.90;;;8.10;;
79229;SDS011;68663;49.122;17.544;2023-08-21T14:22:45;8.52;;;7.72;;
79229;SDS011;68663;49.122;17.544;2023-08-21T14:25:10;8.70;;;7.93;;
79229;SDS011;68663;49.122;17.544;2023-08-21T14:27:37;8.80;;;8.00;;
79229;SDS011;68663;49.122;17.544;2023-08-21T14:30:04;8.18;;;6.82;;
79229;SDS011;68663;49.122;17.544;2023-08-21T14:32:32;8.50;;;7.45;;
79229;SDS011;68663;49.122;17.544;2023-08-21T14:34:59;7.53;;;6.82;;
79229;SDS011;68663;49.122;17.544;2023-08-21T14:37:25;7.85;;;7.03;;
79229;SDS011;68663;49.122;17.544;2023-08-21T14:39:52;8.43;;;7.53;;